Olinda, Brazil
Current Conditions -  °F | °C
As of 1:00 AM on Thursday 18 Dec 2014 (Local Time) from SBRF Reporting Station
Scattered Clouds Scattered Clouds  
Wind Chill: 79°   Ceiling: Unl
Heat Index: 82°   Visibility: 6mi
Dew Point: 73°   Wind: 6mph
Humidity: 83%   Direction: 60°ENE
Pressure: 29.85"   Gusts: NA
Location:  8.01°S, 34.86°W
Report Text: SBRF 180400Z 06005KT 9999 SCT020 26/23 Q1011
Loading
Personal Weather Stations






























Interactive Weather Map New forecast layout! Learn more

10-Day Weather Forecast

Advertisements
Track Severe Weather on mobile